EXS820 GMMN-LPMA
Flight info
| Callsign | EXS820 |
|---|---|
| Flight time | 1h 22m |
| Altitude | 34000 |
| Route | RAVOL DCT NISBA DCT RAKUN |
| Aircraft | A321/M-SDE3FGHIRWY/LB1 |
Departure
| Time | 2026-05-07 18:21 |
|---|---|
| Airport | Mohammed V International Airport (GMMN) |
Arrival
| Time | 2026-05-07 19:43 |
|---|---|
| Airport | Cristiano Ronaldo International Airport (LPMA) |
| Time | Latitude | Longitude | Altitude | Speed | Heading |
|---|---|---|---|---|---|
| 2026-05-07 18:04 | 33.36123 | -7.57951 | 660 ft | 0 kts | 74° |
| 2026-05-07 18:04 | 33.36122 | -7.57951 | 659 ft | 0 kts | 74° |
| 2026-05-07 18:12 | 33.36119 | -7.57965 | 659 ft | 3 kts | 76° |
| 2026-05-07 18:12 | 33.36114 | -7.57997 | 659 ft | 4 kts | 84° |
| 2026-05-07 18:13 | 33.36112 | -7.58029 | 659 ft | 4 kts | 94° |
| 2026-05-07 18:13 | 33.36114 | -7.58049 | 659 ft | 0 kts | 100° |
| 2026-05-07 18:15 | 33.36094 | -7.58029 | 659 ft | 10 kts | 157° |
| 2026-05-07 18:15 | 33.36039 | -7.58010 | 660 ft | 1 kts | 163° |
| 2026-05-07 18:16 | 33.35988 | -7.57992 | 660 ft | 15 kts | 163° |
| 2026-05-07 18:16 | 33.35869 | -7.57953 | 661 ft | 20 kts | 165° |
| 2026-05-07 18:16 | 33.35733 | -7.57904 | 662 ft | 20 kts | 163° |
| 2026-05-07 18:16 | 33.35631 | -7.57888 | 662 ft | 10 kts | 208° |
| 2026-05-07 18:17 | 33.35605 | -7.57959 | 662 ft | 10 kts | 253° |
| 2026-05-07 18:17 | 33.35543 | -7.58015 | 663 ft | 16 kts | 170° |
| 2026-05-07 18:17 | 33.35414 | -7.57972 | 663 ft | 20 kts | 163° |
| 2026-05-07 18:17 | 33.35309 | -7.57944 | 664 ft | 12 kts | 190° |
| 2026-05-07 18:18 | 33.35255 | -7.58007 | 664 ft | 10 kts | 244° |
| 2026-05-07 18:18 | 33.35237 | -7.58071 | 664 ft | 0 kts | 252° |
| 2026-05-07 18:19 | 33.35236 | -7.58076 | 664 ft | 3 kts | 252° |
| 2026-05-07 18:19 | 33.35220 | -7.58138 | 664 ft | 12 kts | 253° |
| 2026-05-07 18:19 | 33.35198 | -7.58234 | 663 ft | 11 kts | 261° |
| 2026-05-07 18:20 | 33.35214 | -7.58278 | 666 ft | 2 kts | 329° |
| 2026-05-07 18:20 | 33.35274 | -7.58287 | 666 ft | 12 kts | 353° |
| 2026-05-07 18:20 | 33.35366 | -7.58316 | 665 ft | 19 kts | 344° |
| 2026-05-07 18:20 | 33.35698 | -7.58429 | 660 ft | 82 kts | 345° |
| 2026-05-07 18:21 | 33.36446 | -7.58681 | 658 ft | 141 kts | 344° |
| 2026-05-07 18:21 | 33.37526 | -7.59047 | 889 ft | 173 kts | 343° |
| 2026-05-07 18:21 | 33.38733 | -7.59467 | 1399 ft | 189 kts | 343° |
| 2026-05-07 18:21 | 33.40026 | -7.59983 | 1964 ft | 202 kts | 342° |
| 2026-05-07 18:22 | 33.41371 | -7.60577 | 2545 ft | 208 kts | 340° |
| 2026-05-07 18:22 | 33.42268 | -7.60997 | 2869 ft | 211 kts | 339° |
| 2026-05-07 18:22 | 33.43869 | -7.62467 | 3266 ft | 233 kts | 302° |
| 2026-05-07 18:22 | 33.44339 | -7.64359 | 3665 ft | 246 kts | 281° |
| 2026-05-07 18:23 | 33.44665 | -7.66430 | 4145 ft | 257 kts | 282° |
| 2026-05-07 18:23 | 33.45041 | -7.68549 | 4747 ft | 264 kts | 282° |
| 2026-05-07 18:23 | 33.45429 | -7.70668 | 4907 ft | 264 kts | 282° |
| 2026-05-07 18:23 | 33.45826 | -7.72818 | 4939 ft | 264 kts | 282° |
| 2026-05-07 18:24 | 33.46218 | -7.74969 | 4944 ft | 264 kts | 281° |
| 2026-05-07 18:24 | 33.46604 | -7.77117 | 4942 ft | 264 kts | 281° |
| 2026-05-07 18:24 | 33.46983 | -7.79271 | 4948 ft | 264 kts | 281° |
| 2026-05-07 18:24 | 33.47361 | -7.81419 | 4953 ft | 263 kts | 281° |
| 2026-05-07 18:25 | 33.47739 | -7.83564 | 4949 ft | 263 kts | 281° |
| 2026-05-07 18:25 | 33.48118 | -7.85719 | 5226 ft | 266 kts | 281° |
| 2026-05-07 18:25 | 33.48326 | -7.87924 | 5955 ft | 267 kts | 272° |
| 2026-05-07 18:25 | 33.48461 | -7.90155 | 6625 ft | 271 kts | 271° |
| 2026-05-07 18:26 | 33.48600 | -7.92415 | 7280 ft | 273 kts | 272° |
| 2026-05-07 18:26 | 33.48740 | -7.94690 | 7949 ft | 275 kts | 271° |
| 2026-05-07 18:26 | 33.48881 | -7.96986 | 8616 ft | 277 kts | 271° |
| 2026-05-07 18:26 | 33.49013 | -7.99068 | 9230 ft | 278 kts | 271° |
| 2026-05-07 18:27 | 33.49159 | -8.01385 | 9889 ft | 280 kts | 270° |
| 2026-05-07 18:27 | 33.49301 | -8.03748 | 10234 ft | 293 kts | 270° |
| 2026-05-07 18:27 | 33.49447 | -8.06261 | 10361 ft | 312 kts | 270° |
| 2026-05-07 18:27 | 33.49601 | -8.08922 | 10505 ft | 329 kts | 270° |
| 2026-05-07 18:28 | 33.49764 | -8.11689 | 10908 ft | 336 kts | 271° |
| 2026-05-07 18:28 | 33.49935 | -8.14493 | 11443 ft | 339 kts | 270° |
| 2026-05-07 18:28 | 33.50108 | -8.17317 | 12011 ft | 341 kts | 270° |
| 2026-05-07 18:28 | 33.50282 | -8.20161 | 12577 ft | 343 kts | 270° |
| 2026-05-07 18:29 | 33.50456 | -8.23027 | 13127 ft | 346 kts | 270° |
| 2026-05-07 18:29 | 33.50632 | -8.25913 | 13685 ft | 349 kts | 270° |
| 2026-05-07 18:29 | 33.50806 | -8.28820 | 14194 ft | 351 kts | 270° |
| 2026-05-07 18:29 | 33.50977 | -8.31706 | 14694 ft | 352 kts | 270° |
| 2026-05-07 18:30 | 33.51150 | -8.34642 | 15197 ft | 354 kts | 270° |
| 2026-05-07 18:30 | 33.51323 | -8.37588 | 15690 ft | 355 kts | 270° |
| 2026-05-07 18:30 | 33.51493 | -8.40543 | 16184 ft | 356 kts | 270° |
| 2026-05-07 18:30 | 33.51664 | -8.43514 | 16666 ft | 358 kts | 270° |
| 2026-05-07 18:31 | 33.51868 | -8.46492 | 17125 ft | 361 kts | 275° |
| 2026-05-07 18:31 | 33.52463 | -8.49439 | 17581 ft | 368 kts | 285° |
| 2026-05-07 18:31 | 33.53328 | -8.52334 | 18035 ft | 370 kts | 285° |
| 2026-05-07 18:31 | 33.54193 | -8.55237 | 18456 ft | 371 kts | 285° |
| 2026-05-07 18:32 | 33.55056 | -8.58158 | 18819 ft | 372 kts | 285° |
| 2026-05-07 18:32 | 33.55926 | -8.61091 | 19183 ft | 374 kts | 285° |
| 2026-05-07 18:32 | 33.56799 | -8.64032 | 19542 ft | 375 kts | 285° |
| 2026-05-07 18:32 | 33.57675 | -8.66984 | 19882 ft | 376 kts | 284° |
| 2026-05-07 18:33 | 33.58550 | -8.69947 | 20223 ft | 378 kts | 284° |
| 2026-05-07 18:33 | 33.59424 | -8.72921 | 20561 ft | 379 kts | 284° |
| 2026-05-07 18:33 | 33.60301 | -8.75907 | 20905 ft | 380 kts | 284° |
| 2026-05-07 18:33 | 33.61183 | -8.78901 | 21244 ft | 381 kts | 284° |
| 2026-05-07 18:34 | 33.62069 | -8.81911 | 21582 ft | 383 kts | 284° |
| 2026-05-07 18:34 | 33.62955 | -8.84928 | 21918 ft | 384 kts | 284° |
| 2026-05-07 18:34 | 33.63842 | -8.87959 | 22260 ft | 386 kts | 284° |
| 2026-05-07 18:34 | 33.64726 | -8.90999 | 22609 ft | 387 kts | 283° |
| 2026-05-07 18:35 | 33.65615 | -8.94057 | 22959 ft | 389 kts | 283° |
| 2026-05-07 18:35 | 33.66508 | -8.97124 | 23307 ft | 390 kts | 283° |
| 2026-05-07 18:35 | 33.67408 | -9.00204 | 23629 ft | 392 kts | 283° |
| 2026-05-07 18:35 | 33.68189 | -9.03275 | 23904 ft | 387 kts | 275° |
| 2026-05-07 18:36 | 33.68400 | -9.06468 | 24178 ft | 383 kts | 267° |
| 2026-05-07 18:36 | 33.68457 | -9.09671 | 24469 ft | 385 kts | 267° |
| 2026-05-07 18:36 | 33.68502 | -9.12886 | 24753 ft | 386 kts | 266° |
| 2026-05-07 18:36 | 33.68534 | -9.16107 | 25040 ft | 387 kts | 266° |
| 2026-05-07 18:37 | 33.68558 | -9.19344 | 25322 ft | 388 kts | 266° |
| 2026-05-07 18:37 | 33.68574 | -9.22585 | 25584 ft | 389 kts | 266° |
| 2026-05-07 18:37 | 33.68588 | -9.25841 | 25855 ft | 390 kts | 266° |
| 2026-05-07 18:37 | 33.68603 | -9.29107 | 26120 ft | 392 kts | 266° |
| 2026-05-07 18:38 | 33.68619 | -9.32382 | 26378 ft | 393 kts | 266° |
| 2026-05-07 18:38 | 33.68637 | -9.35670 | 26637 ft | 395 kts | 266° |
| 2026-05-07 18:38 | 33.68655 | -9.38972 | 26896 ft | 396 kts | 266° |
| 2026-05-07 18:38 | 33.68675 | -9.42281 | 27157 ft | 397 kts | 266° |
| 2026-05-07 18:39 | 33.68692 | -9.45606 | 27407 ft | 399 kts | 266° |
| 2026-05-07 18:39 | 33.68709 | -9.48939 | 27657 ft | 400 kts | 266° |
| 2026-05-07 18:39 | 33.68728 | -9.52286 | 27902 ft | 401 kts | 266° |
| 2026-05-07 18:39 | 33.68746 | -9.55646 | 28137 ft | 403 kts | 266° |
| 2026-05-07 18:40 | 33.68761 | -9.59012 | 28370 ft | 404 kts | 266° |
| 2026-05-07 18:40 | 33.68774 | -9.62396 | 28603 ft | 406 kts | 266° |
| 2026-05-07 18:40 | 33.68786 | -9.65786 | 28831 ft | 407 kts | 266° |
| 2026-05-07 18:40 | 33.68798 | -9.69194 | 29040 ft | 408 kts | 266° |
| 2026-05-07 18:41 | 33.68810 | -9.72611 | 29244 ft | 410 kts | 266° |
| 2026-05-07 18:41 | 33.68818 | -9.76035 | 29441 ft | 411 kts | 266° |
| 2026-05-07 18:41 | 33.68823 | -9.79468 | 29630 ft | 412 kts | 266° |
| 2026-05-07 18:41 | 33.68826 | -9.82913 | 29808 ft | 413 kts | 266° |
| 2026-05-07 18:42 | 33.68828 | -9.86359 | 29978 ft | 414 kts | 265° |
| 2026-05-07 18:42 | 33.68829 | -9.89776 | 30142 ft | 414 kts | 265° |
| 2026-05-07 18:42 | 33.68833 | -9.93227 | 30354 ft | 413 kts | 265° |
| 2026-05-07 18:42 | 33.68839 | -9.96675 | 30564 ft | 412 kts | 265° |
| 2026-05-07 18:43 | 33.68846 | -10.00111 | 30775 ft | 411 kts | 265° |
| 2026-05-07 18:43 | 33.68855 | -10.03542 | 30987 ft | 411 kts | 265° |
| 2026-05-07 18:43 | 33.68863 | -10.06964 | 31197 ft | 410 kts | 265° |
| 2026-05-07 18:43 | 33.68861 | -10.10378 | 31412 ft | 409 kts | 265° |
| 2026-05-07 18:44 | 33.68852 | -10.13793 | 31628 ft | 408 kts | 265° |
| 2026-05-07 18:44 | 33.68845 | -10.17192 | 31844 ft | 407 kts | 265° |
| 2026-05-07 18:44 | 33.68841 | -10.20590 | 32070 ft | 406 kts | 265° |
| 2026-05-07 18:44 | 33.68839 | -10.23976 | 32275 ft | 405 kts | 265° |
| 2026-05-07 18:45 | 33.68838 | -10.27364 | 32492 ft | 405 kts | 265° |
| 2026-05-07 18:45 | 33.68833 | -10.30735 | 32712 ft | 404 kts | 264° |
| 2026-05-07 18:45 | 33.68825 | -10.34102 | 32928 ft | 403 kts | 264° |
| 2026-05-07 18:45 | 33.68815 | -10.37459 | 33143 ft | 402 kts | 264° |
| 2026-05-07 18:46 | 33.68802 | -10.40810 | 33360 ft | 401 kts | 264° |
| 2026-05-07 18:46 | 33.68790 | -10.44153 | 33578 ft | 400 kts | 264° |
| 2026-05-07 18:46 | 33.68782 | -10.47490 | 33792 ft | 399 kts | 264° |
| 2026-05-07 18:46 | 33.68772 | -10.50817 | 33960 ft | 398 kts | 264° |
| 2026-05-07 18:47 | 33.68763 | -10.54120 | 33987 ft | 393 kts | 264° |
| 2026-05-07 18:47 | 33.68737 | -10.60654 | 33987 ft | 390 kts | 264° |
| 2026-05-07 18:48 | 33.68705 | -10.67167 | 33991 ft | 390 kts | 264° |
| 2026-05-07 18:48 | 33.68668 | -10.73682 | 33990 ft | 390 kts | 264° |
| 2026-05-07 18:49 | 33.68632 | -10.80201 | 33988 ft | 390 kts | 264° |
| 2026-05-07 18:49 | 33.68601 | -10.86719 | 34000 ft | 390 kts | 264° |
| 2026-05-07 18:50 | 33.68563 | -10.93237 | 33996 ft | 390 kts | 264° |
| 2026-05-07 18:50 | 33.68509 | -10.99754 | 34000 ft | 391 kts | 263° |
| 2026-05-07 18:51 | 33.68452 | -11.06278 | 34008 ft | 391 kts | 263° |
| 2026-05-07 18:51 | 33.68401 | -11.12789 | 34007 ft | 390 kts | 263° |
| 2026-05-07 18:52 | 33.68343 | -11.19261 | 34010 ft | 390 kts | 263° |
| 2026-05-07 18:52 | 33.68284 | -11.25759 | 34004 ft | 389 kts | 263° |
| 2026-05-07 18:53 | 33.68216 | -11.32251 | 34004 ft | 389 kts | 263° |
| 2026-05-07 18:53 | 33.68160 | -11.37638 | 34004 ft | 388 kts | 263° |
| 2026-05-07 18:54 | 33.68090 | -11.44123 | 34007 ft | 388 kts | 263° |
| 2026-05-07 18:54 | 33.68023 | -11.50603 | 34007 ft | 388 kts | 263° |
| 2026-05-07 18:55 | 33.67946 | -11.57078 | 34003 ft | 388 kts | 263° |
| 2026-05-07 18:55 | 33.67864 | -11.63553 | 34002 ft | 388 kts | 262° |
| 2026-05-07 18:56 | 33.67775 | -11.70022 | 34005 ft | 387 kts | 262° |
| 2026-05-07 18:56 | 33.67686 | -11.76490 | 34008 ft | 387 kts | 262° |
| 2026-05-07 18:57 | 33.67602 | -11.82952 | 34010 ft | 387 kts | 262° |
| 2026-05-07 18:57 | 33.67515 | -11.89413 | 34014 ft | 387 kts | 262° |
| 2026-05-07 18:58 | 33.67419 | -11.95861 | 34015 ft | 386 kts | 262° |
| 2026-05-07 18:58 | 33.67316 | -12.02297 | 34017 ft | 385 kts | 262° |
| 2026-05-07 18:59 | 33.67211 | -12.08721 | 34016 ft | 385 kts | 262° |
| 2026-05-07 18:59 | 33.67107 | -12.15135 | 34019 ft | 384 kts | 262° |
| 2026-05-07 19:00 | 33.66993 | -12.21537 | 34021 ft | 383 kts | 261° |
| 2026-05-07 19:00 | 33.66876 | -12.27939 | 34020 ft | 383 kts | 261° |
| 2026-05-07 19:01 | 33.66768 | -12.34332 | 34023 ft | 383 kts | 261° |
| 2026-05-07 19:01 | 33.66650 | -12.40720 | 34027 ft | 383 kts | 261° |
| 2026-05-07 19:02 | 33.66524 | -12.47068 | 34025 ft | 383 kts | 261° |
| 2026-05-07 19:02 | 33.66398 | -12.53444 | 34019 ft | 382 kts | 261° |
| 2026-05-07 19:03 | 33.66265 | -12.59825 | 34024 ft | 382 kts | 261° |
| 2026-05-07 19:03 | 33.66133 | -12.66199 | 34022 ft | 382 kts | 261° |
| 2026-05-07 19:04 | 33.66000 | -12.72565 | 34014 ft | 381 kts | 261° |
| 2026-05-07 19:04 | 33.65867 | -12.78923 | 34018 ft | 381 kts | 261° |
| 2026-05-07 19:05 | 33.65725 | -12.85279 | 34020 ft | 381 kts | 261° |
| 2026-05-07 19:05 | 33.65581 | -12.91627 | 34015 ft | 380 kts | 261° |
| 2026-05-07 19:06 | 33.65436 | -12.97969 | 34016 ft | 380 kts | 261° |
| 2026-05-07 19:06 | 33.65206 | -13.07481 | 34009 ft | 380 kts | 261° |
| 2026-05-07 19:07 | 33.65048 | -13.13824 | 34006 ft | 381 kts | 261° |
| 2026-05-07 19:07 | 33.64890 | -13.20176 | 34004 ft | 381 kts | 261° |
| 2026-05-07 19:08 | 33.64728 | -13.26537 | 34002 ft | 381 kts | 261° |
| 2026-05-07 19:08 | 33.64570 | -13.32908 | 33996 ft | 382 kts | 261° |
| 2026-05-07 19:09 | 33.64405 | -13.39283 | 33996 ft | 383 kts | 261° |
| 2026-05-07 19:09 | 33.64221 | -13.45669 | 33990 ft | 383 kts | 261° |
| 2026-05-07 19:10 | 33.64040 | -13.52060 | 33990 ft | 383 kts | 261° |
| 2026-05-07 19:10 | 33.63861 | -13.58415 | 33991 ft | 384 kts | 262° |
| 2026-05-07 19:11 | 33.63686 | -13.64826 | 33988 ft | 385 kts | 262° |
| 2026-05-07 19:11 | 33.63506 | -13.71254 | 33986 ft | 385 kts | 262° |
| 2026-05-07 19:12 | 33.63312 | -13.77676 | 33991 ft | 386 kts | 262° |
| 2026-05-07 19:12 | 33.63107 | -13.84072 | 33991 ft | 386 kts | 262° |
| 2026-05-07 19:13 | 33.62913 | -13.90521 | 34001 ft | 387 kts | 262° |
| 2026-05-07 19:13 | 33.62718 | -13.96983 | 33999 ft | 387 kts | 262° |
| 2026-05-07 19:14 | 33.62512 | -14.03442 | 34006 ft | 388 kts | 262° |
| 2026-05-07 19:14 | 33.62300 | -14.09906 | 33997 ft | 388 kts | 262° |
| 2026-05-07 19:15 | 33.62090 | -14.16373 | 34003 ft | 388 kts | 262° |
| 2026-05-07 19:15 | 33.61878 | -14.22841 | 33995 ft | 388 kts | 263° |
| 2026-05-07 19:16 | 33.61659 | -14.29312 | 33998 ft | 388 kts | 263° |
| 2026-05-07 19:16 | 33.61433 | -14.35784 | 33998 ft | 388 kts | 263° |
| 2026-05-07 19:17 | 33.61203 | -14.42264 | 33996 ft | 389 kts | 263° |
| 2026-05-07 19:17 | 33.60978 | -14.48750 | 33994 ft | 389 kts | 263° |
| 2026-05-07 19:18 | 33.60748 | -14.55246 | 33994 ft | 390 kts | 263° |
| 2026-05-07 19:18 | 33.60513 | -14.61750 | 33990 ft | 390 kts | 263° |
| 2026-05-07 19:19 | 33.60271 | -14.68258 | 33994 ft | 391 kts | 264° |
| 2026-05-07 19:19 | 33.60029 | -14.74772 | 33990 ft | 391 kts | 264° |
| 2026-05-07 19:20 | 33.59777 | -14.81241 | 33988 ft | 391 kts | 264° |
| 2026-05-07 19:20 | 33.59525 | -14.87758 | 33987 ft | 391 kts | 264° |
| 2026-05-07 19:21 | 33.59272 | -14.94271 | 33977 ft | 391 kts | 265° |
| 2026-05-07 19:21 | 33.59089 | -14.97525 | 33455 ft | 391 kts | 259° |
| 2026-05-07 19:21 | 33.58281 | -15.00650 | 32364 ft | 397 kts | 244° |
| 2026-05-07 19:22 | 33.57024 | -15.03632 | 31296 ft | 404 kts | 244° |
| 2026-05-07 19:22 | 33.55729 | -15.06652 | 30393 ft | 408 kts | 244° |
| 2026-05-07 19:22 | 33.54436 | -15.09653 | 29852 ft | 402 kts | 244° |
| 2026-05-07 19:22 | 33.53159 | -15.12617 | 29201 ft | 398 kts | 244° |
| 2026-05-07 19:23 | 33.51897 | -15.15556 | 28554 ft | 395 kts | 245° |
| 2026-05-07 19:23 | 33.50648 | -15.18471 | 27907 ft | 391 kts | 245° |
| 2026-05-07 19:23 | 33.49413 | -15.21363 | 27243 ft | 389 kts | 245° |
| 2026-05-07 19:23 | 33.48192 | -15.24223 | 26787 ft | 381 kts | 246° |
| 2026-05-07 19:24 | 33.46992 | -15.27025 | 26344 ft | 375 kts | 246° |
| 2026-05-07 19:24 | 33.45811 | -15.29772 | 25921 ft | 367 kts | 246° |
| 2026-05-07 19:24 | 33.44653 | -15.32464 | 25512 ft | 360 kts | 247° |
| 2026-05-07 19:24 | 33.43521 | -15.35096 | 25112 ft | 352 kts | 247° |
| 2026-05-07 19:25 | 33.42411 | -15.37676 | 24719 ft | 344 kts | 247° |
| 2026-05-07 19:25 | 33.41325 | -15.40199 | 24355 ft | 338 kts | 248° |
| 2026-05-07 19:25 | 33.40261 | -15.42673 | 23967 ft | 332 kts | 248° |
| 2026-05-07 19:25 | 33.39212 | -15.45108 | 23585 ft | 326 kts | 248° |
| 2026-05-07 19:26 | 33.38183 | -15.47500 | 23182 ft | 320 kts | 248° |
| 2026-05-07 19:26 | 33.37172 | -15.49846 | 22815 ft | 315 kts | 248° |
| 2026-05-07 19:26 | 33.36186 | -15.52141 | 22459 ft | 314 kts | 248° |
| 2026-05-07 19:26 | 33.35191 | -15.54457 | 22099 ft | 312 kts | 248° |
| 2026-05-07 19:27 | 33.34199 | -15.56759 | 21739 ft | 311 kts | 248° |
| 2026-05-07 19:27 | 33.33209 | -15.59046 | 21380 ft | 309 kts | 248° |
| 2026-05-07 19:27 | 33.32222 | -15.61323 | 21017 ft | 307 kts | 248° |
| 2026-05-07 19:27 | 33.31243 | -15.63584 | 20655 ft | 306 kts | 248° |
| 2026-05-07 19:28 | 33.30267 | -15.65836 | 20277 ft | 304 kts | 248° |
| 2026-05-07 19:28 | 33.29297 | -15.68074 | 19907 ft | 302 kts | 249° |
| 2026-05-07 19:28 | 33.28334 | -15.70300 | 19551 ft | 301 kts | 249° |
| 2026-05-07 19:28 | 33.27376 | -15.72515 | 19192 ft | 299 kts | 249° |
| 2026-05-07 19:29 | 33.26423 | -15.74715 | 18839 ft | 297 kts | 249° |
| 2026-05-07 19:29 | 33.25474 | -15.76900 | 18476 ft | 296 kts | 249° |
| 2026-05-07 19:29 | 33.24529 | -15.79079 | 18106 ft | 295 kts | 249° |
| 2026-05-07 19:29 | 33.23587 | -15.81247 | 17735 ft | 294 kts | 248° |
| 2026-05-07 19:30 | 33.22647 | -15.83406 | 17382 ft | 293 kts | 248° |
| 2026-05-07 19:30 | 33.21709 | -15.85560 | 17042 ft | 292 kts | 248° |
| 2026-05-07 19:30 | 33.20774 | -15.87705 | 16695 ft | 291 kts | 248° |
| 2026-05-07 19:30 | 33.19842 | -15.89843 | 16351 ft | 290 kts | 248° |
| 2026-05-07 19:31 | 33.18914 | -15.91974 | 16015 ft | 289 kts | 248° |
| 2026-05-07 19:31 | 33.17984 | -15.94099 | 15665 ft | 288 kts | 247° |
| 2026-05-07 19:31 | 33.17056 | -15.96217 | 15332 ft | 288 kts | 247° |
| 2026-05-07 19:31 | 33.16132 | -15.98328 | 14985 ft | 287 kts | 247° |
| 2026-05-07 19:32 | 33.15211 | -16.00433 | 14644 ft | 286 kts | 247° |
| 2026-05-07 19:32 | 33.14304 | -16.02505 | 14316 ft | 285 kts | 247° |
| 2026-05-07 19:32 | 33.13384 | -16.04604 | 13968 ft | 285 kts | 247° |
| 2026-05-07 19:32 | 33.12467 | -16.06697 | 13606 ft | 284 kts | 246° |
| 2026-05-07 19:33 | 33.11553 | -16.08784 | 13257 ft | 283 kts | 246° |
| 2026-05-07 19:33 | 33.10641 | -16.10860 | 12901 ft | 282 kts | 246° |
| 2026-05-07 19:33 | 33.09733 | -16.12928 | 12563 ft | 281 kts | 246° |
| 2026-05-07 19:33 | 33.08830 | -16.14984 | 12221 ft | 279 kts | 246° |
| 2026-05-07 19:34 | 33.07930 | -16.17029 | 11874 ft | 278 kts | 246° |
| 2026-05-07 19:34 | 33.07033 | -16.19069 | 11531 ft | 277 kts | 246° |
| 2026-05-07 19:34 | 33.06139 | -16.21098 | 11186 ft | 276 kts | 246° |
| 2026-05-07 19:34 | 33.05248 | -16.23118 | 10836 ft | 275 kts | 246° |
| 2026-05-07 19:35 | 33.04364 | -16.25129 | 10491 ft | 273 kts | 246° |
| 2026-05-07 19:35 | 33.03485 | -16.27126 | 10235 ft | 270 kts | 246° |
| 2026-05-07 19:35 | 33.02610 | -16.29116 | 10152 ft | 271 kts | 246° |
| 2026-05-07 19:35 | 33.01733 | -16.31108 | 10025 ft | 271 kts | 246° |
| 2026-05-07 19:36 | 33.00856 | -16.33099 | 9807 ft | 273 kts | 245° |
| 2026-05-07 19:36 | 32.99970 | -16.35107 | 9322 ft | 273 kts | 245° |
| 2026-05-07 19:36 | 32.99101 | -16.37073 | 8870 ft | 271 kts | 245° |
| 2026-05-07 19:36 | 32.98225 | -16.39054 | 8429 ft | 270 kts | 245° |
| 2026-05-07 19:37 | 32.97356 | -16.41020 | 8047 ft | 267 kts | 245° |
| 2026-05-07 19:37 | 32.96492 | -16.42972 | 7619 ft | 265 kts | 245° |
| 2026-05-07 19:37 | 32.95631 | -16.44915 | 7188 ft | 264 kts | 244° |
| 2026-05-07 19:37 | 32.94777 | -16.46842 | 6759 ft | 263 kts | 244° |
| 2026-05-07 19:38 | 32.93929 | -16.48754 | 6347 ft | 262 kts | 244° |
| 2026-05-07 19:38 | 32.93051 | -16.50640 | 5946 ft | 259 kts | 238° |
| 2026-05-07 19:38 | 32.91854 | -16.52261 | 5472 ft | 262 kts | 224° |
| 2026-05-07 19:38 | 32.90496 | -16.53703 | 5017 ft | 261 kts | 224° |
| 2026-05-07 19:39 | 32.89142 | -16.55141 | 4586 ft | 260 kts | 224° |
| 2026-05-07 19:39 | 32.87824 | -16.56543 | 4474 ft | 246 kts | 224° |
| 2026-05-07 19:39 | 32.86587 | -16.57861 | 4406 ft | 232 kts | 224° |
| 2026-05-07 19:39 | 32.85796 | -16.58706 | 4369 ft | 230 kts | 224° |
| 2026-05-07 19:40 | 32.84231 | -16.60442 | 4047 ft | 229 kts | 226° |
| 2026-05-07 19:40 | 32.83110 | -16.61760 | 4011 ft | 227 kts | 227° |
| 2026-05-07 19:40 | 32.81981 | -16.63105 | 3662 ft | 236 kts | 226° |
| 2026-05-07 19:40 | 32.80813 | -16.64497 | 3118 ft | 244 kts | 226° |
| 2026-05-07 19:41 | 32.79610 | -16.65922 | 2714 ft | 244 kts | 226° |
| 2026-05-07 19:41 | 32.78414 | -16.67333 | 2363 ft | 241 kts | 226° |
| 2026-05-07 19:41 | 32.77230 | -16.68726 | 2025 ft | 238 kts | 226° |
| 2026-05-07 19:41 | 32.76059 | -16.70105 | 1708 ft | 235 kts | 227° |
| 2026-05-07 19:42 | 32.74903 | -16.71462 | 1387 ft | 230 kts | 226° |
| 2026-05-07 19:42 | 32.73817 | -16.72729 | 1108 ft | 210 kts | 226° |
| 2026-05-07 19:42 | 32.72799 | -16.73920 | 828 ft | 201 kts | 224° |
| 2026-05-07 19:42 | 32.71806 | -16.75081 | 576 ft | 198 kts | 226° |
| 2026-05-07 19:43 | 32.70834 | -16.76217 | 308 ft | 195 kts | 225° |
| 2026-05-07 19:43 | 32.70203 | -16.76965 | 202 ft | 193 kts | 225° |
| 2026-05-07 19:43 | 32.69480 | -16.77815 | 168 ft | 65 kts | 223° |
| 2026-05-07 19:43 | 32.69328 | -16.77961 | 162 ft | 15 kts | 174° |
| 2026-05-07 19:44 | 32.69298 | -16.77880 | 166 ft | 9 kts | 74° |
| 2026-05-07 19:44 | 32.69324 | -16.77828 | 167 ft | 6 kts | 59° |
| 2026-05-07 19:44 | 32.69369 | -16.77757 | 168 ft | 18 kts | 48° |
| 2026-05-07 19:44 | 32.69472 | -16.77628 | 172 ft | 14 kts | 42° |
| 2026-05-07 19:45 | 32.69506 | -16.77569 | 174 ft | 4 kts | 91° |
| 2026-05-07 19:45 | 32.69493 | -16.77546 | 176 ft | 6 kts | 136° |
| 2026-05-07 19:45 | 32.69469 | -16.77520 | 175 ft | 0 kts | 139° |